Time;durP1;ratioP1;P1;durP2;ratioP2;P2;SDS_P1;SDS_P2;PMS_P1;PMS_P2;Temp;Humidity;BMP_temperature;BMP_pressure;BME280_temperature;BME280_humidity;BME280_pressure;Samples;Min_cycle;Max_cycle;Signal;HPM_P1;HPM_P2
2022/11/29 00:01:30;;;;;;;142.27;29.42;;;9.10;99.90;;;;;;4987199;28;20133;-40
2022/11/29 00:03:58;;;;;;;132.18;27.77;;;9.10;99.90;;;;;;5003424;28;20142;-40
2022/11/29 00:06:26;;;;;;;154.93;28.92;;;9.00;99.90;;;;;;4978048;28;20391;-40
2022/11/29 00:08:53;;;;;;;132.30;28.23;;;9.00;99.90;;;;;;5008292;28;20064;-39
2022/11/29 00:14:01;;;;;;;150.60;27.67;;;9.00;99.90;;;;;;5001301;28;20077;-40
2022/11/29 00:16:28;;;;;;;130.68;25.98;;;9.10;99.90;;;;;;4994667;28;20510;-40
2022/11/29 00:18:55;;;;;;;121.50;27.58;;;9.00;99.90;;;;;;4985294;28;20062;-40
2022/11/29 00:21:23;;;;;;;90.78;23.35;;;9.10;99.90;;;;;;5014440;28;20474;-40
2022/11/29 00:23:49;;;;;;;136.82;28.92;;;9.10;99.90;;;;;;5004321;28;20106;-40
2022/11/29 00:26:16;;;;;;;154.45;28.05;;;9.00;99.90;;;;;;5003182;28;20057;-37
2022/11/29 00:28:43;;;;;;;121.93;26.58;;;9.10;99.90;;;;;;4990682;28;20092;-39
2022/11/29 00:31:15;;;;;;;122.97;26.75;;;9.00;99.90;;;;;;5010372;28;20133;-39
2022/11/29 00:33:41;;;;;;;;;;;9.00;99.90;;;;;;4984757;28;20129;-39
2022/11/29 00:36:08;;;;;;;137.20;27.25;;;9.00;99.90;;;;;;5008567;28;19992;-39
2022/11/29 00:38:36;;;;;;;186.25;28.08;;;9.00;99.90;;;;;;5010232;28;20519;-40
2022/11/29 00:41:03;;;;;;;152.52;29.52;;;9.00;99.90;;;;;;4994000;28;20050;-40
2022/11/29 00:43:30;;;;;;;116.80;28.08;;;9.00;99.90;;;;;;4993053;28;20062;-39
2022/11/29 00:45:57;;;;;;;135.88;28.92;;;9.00;99.90;;;;;;4982839;28;20090;-38
2022/11/29 00:48:24;;;;;;;118.18;27.33;;;9.00;99.90;;;;;;4989128;28;20423;-40
2022/11/29 00:50:51;;;;;;;114.95;27.25;;;9.00;99.90;;;;;;5011106;28;20046;-40
2022/11/29 00:53:17;;;;;;;154.07;30.83;;;9.00;99.90;;;;;;5012937;28;20513;-38
2022/11/29 00:55:47;;;;;;;154.60;29.90;;;9.00;99.90;;;;;;4982719;28;20089;-39
2022/11/29 00:58:14;;;;;;;143.23;28.52;;;9.00;99.90;;;;;;4993369;28;20112;-40
2022/11/29 01:00:40;;;;;;;148.65;31.15;;;9.00;99.90;;;;;;4994274;28;20100;-39
2022/11/29 01:03:07;;;;;;;120.65;28.13;;;9.10;99.90;;;;;;4988439;28;20453;-40
2022/11/29 01:05:34;;;;;;;129.27;30.75;;;9.00;99.90;;;;;;4992600;28;20058;-40
2022/11/29 01:08:01;;;;;;;188.23;32.65;;;9.00;99.90;;;;;;5008979;28;20088;-40
2022/11/29 01:10:27;;;;;;;119.00;28.30;;;9.00;99.90;;;;;;5006643;28;20081;-40
2022/11/29 01:12:58;;;;;;;148.40;31.17;;;9.00;99.90;;;;;;4996108;28;20050;-39
2022/11/29 01:15:25;;;;;;;162.77;31.65;;;9.00;99.90;;;;;;5010167;28;20082;-40
2022/11/29 01:17:52;;;;;;;126.65;28.65;;;9.00;99.90;;;;;;4994578;28;20077;-39
2022/11/29 01:20:19;;;;;;;116.40;28.10;;;9.00;99.90;;;;;;5007752;28;20049;-40
2022/11/29 01:22:46;;;;;;;109.63;27.05;;;9.00;99.90;;;;;;5005976;28;20054;-39
2022/11/29 01:25:13;;;;;;;143.77;29.63;;;9.00;99.90;;;;;;5012186;28;20113;-39
2022/11/29 01:27:40;;;;;;;131.77;29.73;;;9.00;99.90;;;;;;4978411;28;20047;-40
2022/11/29 01:30:10;;;;;;;126.50;27.52;;;9.00;99.90;;;;;;4994412;28;20482;-39
2022/11/29 01:32:37;;;;;;;129.35;28.95;;;9.00;99.90;;;;;;4987181;28;20078;-40
2022/11/29 01:35:04;;;;;;;146.80;29.42;;;9.00;99.90;;;;;;5012941;28;20061;-39
2022/11/29 01:37:31;;;;;;;111.25;26.98;;;9.00;99.90;;;;;;4995904;28;20473;-39
2022/11/29 01:39:57;;;;;;;134.80;29.13;;;9.00;99.90;;;;;;4975610;28;20144;-40
2022/11/29 01:42:24;;;;;;;95.45;25.85;;;8.90;99.90;;;;;;4999351;28;20046;-39
2022/11/29 01:45:06;;;;;;;109.68;26.40;;;9.00;99.90;;;;;;5000022;28;20145;-40
2022/11/29 01:47:35;;;;;;;79.90;23.48;;;9.00;99.90;;;;;;4989254;28;20050;-40
2022/11/29 01:50:02;;;;;;;136.00;27.70;;;9.00;99.90;;;;;;4989386;28;20444;-39
2022/11/29 01:52:30;;;;;;;96.18;24.67;;;8.90;99.90;;;;;;4989508;28;20057;-40
2022/11/29 01:55:00;;;;;;;89.07;24.77;;;8.90;99.90;;;;;;4978412;28;20127;-39
2022/11/29 01:57:26;;;;;;;125.65;27.75;;;8.90;99.90;;;;;;4998984;28;20101;-39
2022/11/29 01:59:56;;;;;;;165.23;30.73;;;8.90;99.90;;;;;;4994840;28;20453;-39
2022/11/29 02:02:24;;;;;;;173.18;32.22;;;8.90;99.90;;;;;;5006176;28;20093;-40
2022/11/29 02:04:52;;;;;;;226.55;32.45;;;8.90;99.90;;;;;;5011532;28;20046;-40
2022/11/29 02:07:19;;;;;;;90.65;25.98;;;8.90;99.90;;;;;;5006119;28;20589;-39
2022/11/29 02:09:46;;;;;;;138.95;31.27;;;8.90;99.90;;;;;;5010908;28;20446;-40
2022/11/29 02:12:21;;;;;;;276.25;32.97;;;8.90;99.90;;;;;;4996847;28;20447;-41
2022/11/29 02:15:05;;;;;;;201.73;30.92;;;8.90;99.90;;;;;;5007241;28;20054;-40
2022/11/29 02:17:35;;;;;;;166.75;29.35;;;8.90;99.90;;;;;;5003684;28;20702;-40
2022/11/29 02:20:28;;;;;;;157.38;26.65;;;9.00;99.90;;;;;;5000786;28;20054;-39
2022/11/29 02:22:57;;;;;;;111.43;24.88;;;8.90;99.90;;;;;;4988281;28;20046;-41
2022/11/29 02:25:45;;;;;;;146.80;27.00;;;8.80;99.90;;;;;;5007738;28;20077;-40
2022/11/29 02:28:41;;;;;;;112.25;24.20;;;8.80;99.90;;;;;;4983397;28;20081;-40
2022/11/29 02:31:42;;;;;;;116.03;25.67;;;8.80;99.90;;;;;;5010453;28;20085;-41
2022/11/29 02:34:52;;;;;;;87.73;22.20;;;8.80;99.90;;;;;;4905694;29;20151;-41
2022/11/29 02:37:28;;;;;;;216.32;24.10;;;8.80;99.90;;;;;;4971069;28;20097;-41
2022/11/29 02:40:42;;;;;;;269.02;24.83;;;8.80;99.90;;;;;;4996787;28;20111;-41
2022/11/29 02:43:32;;;;;;;262.42;24.38;;;8.80;99.90;;;;;;4930012;29;20122;-40
2022/11/29 02:46:07;;;;;;;184.00;22.63;;;8.70;99.90;;;;;;4981427;28;20096;-40
2022/11/29 02:48:55;;;;;;;131.07;20.58;;;8.70;99.90;;;;;;4993147;28;20557;-41
2022/11/29 02:51:26;;;;;;;202.15;22.30;;;8.70;99.90;;;;;;4976423;28;20571;-41
2022/11/29 02:53:56;;;;;;;147.60;22.30;;;8.60;99.90;;;;;;5009944;28;20464;-41
2022/11/29 02:56:24;;;;;;;98.55;19.55;;;8.60;99.90;;;;;;5004759;28;20058;-41
2022/11/29 02:58:54;;;;;;;139.77;21.23;;;8.60;99.90;;;;;;4987854;28;20088;-41
2022/11/29 03:01:23;;;;;;;64.05;19.65;;;8.60;99.90;;;;;;4964602;28;20055;-41
2022/11/29 03:03:52;;;;;;;94.78;19.35;;;8.60;99.90;;;;;;4997800;28;20054;-39
2022/11/29 03:06:22;;;;;;;122.75;21.02;;;8.60;99.90;;;;;;4991609;28;20085;-41
2022/11/29 03:08:54;;;;;;;81.47;18.77;;;8.60;99.90;;;;;;4991098;28;20498;-41
2022/11/29 03:11:25;;;;;;;118.97;19.40;;;8.50;99.90;;;;;;5002449;28;20046;-41
2022/11/29 03:13:55;;;;;;;46.30;17.83;;;8.50;99.90;;;;;;4977005;28;20078;-40
2022/11/29 03:16:28;;;;;;;88.35;20.42;;;8.50;99.90;;;;;;5002561;28;20443;-41
2022/11/29 03:19:00;;;;;;;110.43;20.92;;;8.50;99.90;;;;;;4998323;28;20082;-40
2022/11/29 03:21:36;;;;;;;;;;;8.50;99.90;;;;;;4998617;28;20149;-40
2022/11/29 03:24:05;;;;;;;96.13;19.67;;;8.40;99.90;;;;;;4992495;28;20038;-40
2022/11/29 03:26:34;;;;;;;137.30;20.88;;;8.40;99.90;;;;;;5003066;28;20077;-41
2022/11/29 03:29:06;;;;;;;57.72;18.05;;;8.40;99.90;;;;;;4994466;28;20054;-41
2022/11/29 03:31:35;;;;;;;64.13;19.67;;;8.40;99.90;;;;;;4997479;28;20088;-39
2022/11/29 03:34:08;;;;;;;90.20;20.23;;;8.40;99.90;;;;;;5002940;28;20108;-39
2022/11/29 03:36:40;;;;;;;59.72;18.83;;;8.30;99.90;;;;;;5007423;28;20112;-40
2022/11/29 03:39:12;;;;;;;87.75;20.58;;;8.40;99.90;;;;;;5002671;28;20050;-40
2022/11/29 03:41:41;;;;;;;58.75;19.15;;;8.30;99.90;;;;;;5006121;28;20096;-41
2022/11/29 03:44:11;;;;;;;106.38;21.38;;;8.30;99.90;;;;;;5000666;28;20089;-40
2022/11/29 03:46:40;;;;;;;124.50;21.58;;;8.30;99.90;;;;;;5014268;28;20104;-41
2022/11/29 03:49:09;;;;;;;106.78;21.83;;;8.30;99.90;;;;;;4982734;28;20133;-40
2022/11/29 03:51:43;;;;;;;98.72;21.42;;;8.30;99.90;;;;;;4996292;28;20054;-40
2022/11/29 03:54:13;;;;;;;87.63;20.42;;;8.30;99.90;;;;;;5014895;28;20493;-41
2022/11/29 03:56:40;;;;;;;64.45;20.23;;;8.30;99.90;;;;;;5003632;28;20088;-40
2022/11/29 03:59:14;;;;;;;73.20;20.98;;;8.30;99.90;;;;;;4986328;28;20478;-39
2022/11/29 04:02:21;;;;;;;44.03;18.85;;;8.30;99.90;;;;;;5012672;28;20461;-40
2022/11/29 04:05:11;;;;;;;93.13;21.20;;;8.30;99.90;;;;;;4988261;28;20490;-40
2022/11/29 04:07:47;;;;;;;60.28;18.65;;;8.30;99.90;;;;;;5002665;28;20046;-40
2022/11/29 04:10:23;;;;;;;47.58;18.92;;;8.30;99.90;;;;;;4994339;28;20082;-40
2022/11/29 04:13:44;;;;;;;117.45;21.13;;;8.30;99.90;;;;;;4992961;28;20101;-40
2022/11/29 04:16:38;;;;;;;51.13;18.33;;;8.30;99.90;;;;;;4899669;29;20098;-39
2022/11/29 04:19:42;;;;;;;57.35;19.05;;;8.30;99.90;;;;;;4923775;29;20508;-41
2022/11/29 04:22:20;;;;;;;101.28;20.17;;;8.30;99.90;;;;;;4983439;28;20053;-41
2022/11/29 04:25:26;;;;;;;109.15;21.42;;;8.30;99.90;;;;;;5004301;28;20506;-40
2022/11/29 04:28:10;;;;;;;84.63;18.33;;;8.30;99.90;;;;;;5002223;28;20085;-39
2022/11/29 04:30:41;;;;;;;96.40;20.52;;;8.30;99.90;;;;;;4981091;28;20042;-40
2022/11/29 04:33:32;;;;;;;107.05;20.67;;;8.30;99.90;;;;;;4993165;28;20532;-41
2022/11/29 04:36:21;;;;;;;70.03;19.25;;;8.30;99.90;;;;;;4983591;28;20100;-40
2022/11/29 04:39:00;;;;;;;38.63;16.75;;;8.30;99.90;;;;;;4980794;28;20214;-40
2022/11/29 04:41:40;;;;;;;132.75;20.30;;;8.30;99.90;;;;;;5007053;28;20101;-39
2022/11/29 04:44:12;;;;;;;150.68;21.05;;;8.30;99.90;;;;;;5004279;28;20128;-41
2022/11/29 04:46:48;;;;;;;232.27;22.50;;;8.20;99.90;;;;;;4995103;28;20116;-40
2022/11/29 04:49:22;;;;;;;223.52;20.33;;;8.20;99.90;;;;;;5000267;28;20054;-40
2022/11/29 04:52:15;;;;;;;112.03;18.33;;;8.20;99.90;;;;;;4999692;28;20093;-41
2022/11/29 04:54:45;;;;;;;181.15;18.60;;;8.20;99.90;;;;;;5012605;28;20506;-41
2022/11/29 04:57:17;;;;;;;101.63;16.77;;;8.20;99.90;;;;;;5006928;28;20069;-41
2022/11/29 04:59:47;;;;;;;108.85;19.05;;;8.20;99.90;;;;;;4982089;28;20058;-40
2022/11/29 05:02:19;;;;;;;51.05;16.02;;;8.10;99.90;;;;;;4977711;28;20141;-41
2022/11/29 05:04:48;;;;;;;126.93;19.38;;;8.20;99.90;;;;;;4992729;28;20085;-40
2022/11/29 05:07:21;;;;;;;154.00;20.40;;;8.20;99.90;;;;;;5008449;28;20520;-40
2022/11/29 05:09:55;;;;;;;63.03;16.92;;;8.20;99.90;;;;;;4997999;28;20050;-41
2022/11/29 05:12:27;;;;;;;247.05;20.80;;;8.10;99.90;;;;;;4989087;28;20050;-41
2022/11/29 05:15:05;;;;;;;70.20;16.65;;;8.10;99.90;;;;;;4994891;28;20050;-41
2022/11/29 05:17:33;;;;;;;96.93;17.58;;;8.10;99.90;;;;;;4994891;28;20050;-41
2022/11/29 05:20:32;;;;;;;207.43;21.10;;;8.10;99.90;;;;;;4994239;28;20081;-40
2022/11/29 05:23:07;;;;;;;91.35;18.40;;;8.10;99.90;;;;;;4947054;28;20498;-41
2022/11/29 05:25:40;;;;;;;96.63;19.73;;;8.10;99.90;;;;;;5019092;28;20089;-41
2022/11/29 05:28:10;;;;;;;152.02;19.45;;;8.10;99.90;;;;;;5003486;28;20120;-40
2022/11/29 05:31:19;;;;;;;153.47;20.23;;;8.10;99.90;;;;;;4994464;28;20090;-41
2022/11/29 05:34:14;;;;;;;129.98;20.10;;;8.10;99.90;;;;;;4964031;28;20333;-40
2022/11/29 05:36:42;;;;;;;188.20;21.25;;;8.10;99.90;;;;;;4991920;28;20096;-41
2022/11/29 05:39:22;;;;;;;276.40;22.05;;;8.10;99.90;;;;;;4993095;28;20529;-40
2022/11/29 05:41:57;;;;;;;120.75;19.08;;;8.10;99.90;;;;;;5022771;28;20133;-41
2022/11/29 05:44:30;;;;;;;97.22;18.63;;;8.10;99.90;;;;;;4986639;28;20473;-41
2022/11/29 05:46:58;;;;;;;243.75;21.92;;;8.10;99.90;;;;;;5001999;28;20503;-40
2022/11/29 05:49:31;;;;;;;167.18;20.58;;;8.10;99.90;;;;;;4982031;28;20133;-40
2022/11/29 05:52:03;;;;;;;95.68;18.23;;;8.10;99.90;;;;;;4998376;28;20081;-41
2022/11/29 05:54:31;;;;;;;165.18;20.35;;;8.00;99.90;;;;;;5006229;28;20414;-40
2022/11/29 05:57:05;;;;;;;150.73;20.02;;;8.00;99.90;;;;;;5012799;28;20112;-40
2022/11/29 05:59:33;;;;;;;134.77;20.27;;;8.10;99.90;;;;;;4991942;28;20090;-41
2022/11/29 06:02:04;;;;;;;229.20;21.55;;;8.10;99.90;;;;;;4989945;28;20458;-39
2022/11/29 06:04:44;;;;;;;100.60;19.20;;;8.10;99.90;;;;;;4993225;28;20133;-40
2022/11/29 06:07:14;;;;;;;145.32;21.00;;;8.10;99.90;;;;;;4988329;28;20064;-41
2022/11/29 06:09:43;;;;;;;167.05;22.13;;;8.00;99.90;;;;;;4969222;28;20081;-40
2022/11/29 06:12:12;;;;;;;192.90;22.02;;;8.00;99.90;;;;;;4982566;28;20308;-40
2022/11/29 06:14:55;;;;;;;117.10;20.65;;;8.10;99.90;;;;;;4955517;28;20456;-39
2022/11/29 06:17:33;;;;;;;142.35;21.17;;;8.10;99.90;;;;;;4970779;28;20047;-39
2022/11/29 06:20:11;;;;;;;93.22;18.33;;;8.10;99.90;;;;;;4971102;28;20058;-40
2022/11/29 06:22:50;;;;;;;171.90;22.73;;;8.00;99.90;;;;;;5002369;28;20050;-41
2022/11/29 06:25:23;;;;;;;96.75;19.85;;;8.10;99.90;;;;;;4986918;28;20050;-41
2022/11/29 06:28:05;;;;;;;216.68;21.63;;;8.00;99.90;;;;;;4998291;28;20058;-41
2022/11/29 06:30:35;;;;;;;;;;;8.00;99.90;;;;;;4978804;28;20126;-40
2022/11/29 06:33:03;;;;;;;154.18;19.83;;;8.00;99.90;;;;;;4976360;28;19969;-41
2022/11/29 06:35:38;;;;;;;162.05;20.77;;;8.00;99.90;;;;;;4970307;28;20056;-40
2022/11/29 06:38:09;;;;;;;123.85;19.30;;;8.00;99.90;;;;;;4968386;28;20676;-40
2022/11/29 06:40:36;;;;;;;103.65;17.08;;;8.00;99.90;;;;;;4980346;28;20133;-39
2022/11/29 06:43:03;;;;;;;84.15;18.33;;;8.00;99.90;;;;;;4988431;28;20478;-36
2022/11/29 06:45:31;;;;;;;119.93;19.25;;;8.00;99.90;;;;;;4970295;28;20055;-40
2022/11/29 06:48:00;;;;;;;88.15;17.58;;;8.00;99.90;;;;;;4954192;28;20094;-39
2022/11/29 06:50:33;;;;;;;104.43;19.17;;;8.00;99.90;;;;;;4957966;28;20050;-39
2022/11/29 06:53:07;;;;;;;120.50;19.25;;;8.00;99.90;;;;;;4988127;28;20078;-40
2022/11/29 06:55:39;;;;;;;52.95;17.75;;;8.00;99.90;;;;;;4980377;28;20401;-40
2022/11/29 06:58:09;;;;;;;128.75;20.02;;;7.90;99.90;;;;;;4990546;28;20454;-40
2022/11/29 07:00:39;;;;;;;141.68;20.00;;;7.90;99.90;;;;;;4971852;28;20086;-41
2022/11/29 07:03:15;;;;;;;73.82;18.23;;;7.90;99.90;;;;;;4996010;28;20493;-41
2022/11/29 07:05:42;;;;;;;99.88;17.05;;;7.90;99.90;;;;;;4978886;28;20054;-40
2022/11/29 07:08:11;;;;;;;161.27;20.00;;;7.90;99.90;;;;;;5006196;28;20049;-40
2022/11/29 07:10:39;;;;;;;79.70;17.02;;;7.90;99.90;;;;;;4997647;28;20084;-40
2022/11/29 07:13:06;;;;;;;110.85;18.17;;;7.90;99.90;;;;;;4995555;28;20153;-41
2022/11/29 07:15:33;;;;;;;69.18;17.63;;;7.80;99.90;;;;;;4999300;28;20148;-40
2022/11/29 07:18:09;;;;;;;77.55;17.45;;;7.80;99.90;;;;;;5013819;28;20049;-36
2022/11/29 07:20:39;;;;;;;55.95;17.42;;;7.80;99.90;;;;;;4995487;28;20133;-39
2022/11/29 07:23:10;;;;;;;42.40;16.55;;;7.80;99.90;;;;;;5009531;28;20050;-38
2022/11/29 07:25:41;;;;;;;121.00;17.55;;;7.80;99.90;;;;;;4996695;28;20085;-40
2022/11/29 07:28:14;;;;;;;100.90;17.60;;;7.80;99.90;;;;;;4995204;28;20081;-40
2022/11/29 07:30:44;;;;;;;78.65;17.25;;;7.90;99.90;;;;;;4995640;28;20137;-40
2022/11/29 07:33:16;;;;;;;35.63;14.87;;;7.80;99.90;;;;;;4996460;28;20085;-40
2022/11/29 07:35:45;;;;;;;56.70;16.35;;;7.80;99.90;;;;;;4983935;28;20134;-40
2022/11/29 07:38:16;;;;;;;60.28;17.67;;;7.80;99.90;;;;;;5010267;28;20144;-40
2022/11/29 07:40:49;;;;;;;83.75;17.13;;;7.80;99.90;;;;;;4993022;28;20465;-39
2022/11/29 07:43:25;;;;;;;59.97;17.92;;;7.80;99.90;;;;;;4993829;28;20518;-40
2022/11/29 07:45:52;;;;;;;65.82;16.95;;;7.80;99.90;;;;;;4995705;28;20091;-40
2022/11/29 07:48:20;;;;;;;79.28;18.20;;;7.80;99.90;;;;;;4996281;28;20409;-40
2022/11/29 07:50:47;;;;;;;43.45;15.75;;;7.70;99.90;;;;;;5006259;28;20085;-40
2022/11/29 07:53:15;;;;;;;64.93;17.48;;;7.80;99.90;;;;;;4985509;28;20081;-39
2022/11/29 07:55:42;;;;;;;39.47;16.23;;;7.70;99.90;;;;;;5010774;28;20054;-40
2022/11/29 07:58:11;;;;;;;49.90;17.23;;;7.70;99.90;;;;;;5011787;28;20062;-39
2022/11/29 08:00:38;;;;;;;38.53;16.67;;;7.80;99.90;;;;;;5008261;28;20085;-41
2022/11/29 08:03:05;;;;;;;45.67;17.58;;;7.70;99.90;;;;;;4993870;28;20058;-40
2022/11/29 08:05:33;;;;;;;62.88;19.38;;;7.70;99.90;;;;;;4978882;28;20054;-40
2022/11/29 08:07:59;;;;;;;39.05;17.08;;;7.80;99.90;;;;;;4962776;28;20129;-41
2022/11/29 08:10:26;;;;;;;58.13;18.05;;;7.80;99.90;;;;;;4984804;28;20054;-40
2022/11/29 08:12:53;;;;;;;66.30;18.25;;;7.80;99.90;;;;;;4992524;28;20093;-40
2022/11/29 08:15:21;;;;;;;55.00;18.52;;;7.80;99.90;;;;;;4995615;28;20149;-39
2022/11/29 08:17:48;;;;;;;70.43;17.88;;;7.80;99.90;;;;;;4996113;28;20096;-40
2022/11/29 08:20:15;;;;;;;33.55;15.68;;;7.80;99.90;;;;;;4988017;28;20081;-40
2022/11/29 08:22:43;;;;;;;48.35;18.15;;;7.80;99.90;;;;;;4990734;28;20046;-40
2022/11/29 08:25:10;;;;;;;43.13;16.63;;;7.80;99.90;;;;;;4994543;28;20074;-40
2022/11/29 08:27:37;;;;;;;50.92;17.17;;;7.80;99.90;;;;;;4992483;28;20054;-40
2022/11/29 08:30:05;;;;;;;32.90;15.73;;;7.80;99.90;;;;;;4994190;28;20086;-40
2022/11/29 08:32:31;;;;;;;42.78;16.95;;;7.80;99.90;;;;;;4977681;28;20090;-41
2022/11/29 08:34:58;;;;;;;51.22;16.98;;;7.90;99.90;;;;;;4992818;28;20486;-40
2022/11/29 08:37:25;;;;;;;35.03;15.80;;;7.90;99.90;;;;;;4983704;28;20083;-40
2022/11/29 08:39:54;;;;;;;39.13;16.27;;;7.80;99.90;;;;;;4982245;28;20086;-39
2022/11/29 08:42:20;;;;;;;49.95;17.17;;;7.90;99.90;;;;;;4970109;28;20062;-40
2022/11/29 08:44:47;;;;;;;41.10;16.58;;;7.90;99.90;;;;;;4979421;28;20055;-40
2022/11/29 08:50:01;;;;;;;44.90;17.30;;;7.90;99.90;;;;;;4957641;28;20055;-41
2022/11/29 08:55:13;;;;;;;37.60;16.27;;;8.00;99.90;;;;;;4980137;28;20051;-40
2022/11/29 08:57:40;;;;;;;46.35;16.75;;;7.90;99.90;;;;;;4973873;28;20085;-41
2022/11/29 09:00:08;;;;;;;40.85;16.70;;;7.90;99.90;;;;;;4961603;28;20050;-41
2022/11/29 09:02:36;;;;;;;44.08;16.90;;;7.90;99.90;;;;;;4985060;28;20108;-40
2022/11/29 09:05:02;;;;;;;40.00;15.73;;;8.00;99.90;;;;;;4979610;28;20078;-41
2022/11/29 09:07:29;;;;;;;39.00;16.08;;;8.00;99.90;;;;;;4997091;28;20089;-40
2022/11/29 09:09:56;;;;;;;39.15;15.02;;;8.00;99.90;;;;;;5000732;28;20137;-41
2022/11/29 09:12:24;;;;;;;40.88;16.27;;;8.00;99.90;;;;;;5009981;23;20116;-40
2022/11/29 09:14:51;;;;;;;27.52;14.60;;;7.90;99.90;;;;;;5010679;28;20189;-41
2022/11/29 09:17:18;;;;;;;37.33;15.65;;;8.00;99.90;;;;;;5011059;28;20174;-41
2022/11/29 09:19:44;;;;;;;32.40;14.23;;;8.10;99.90;;;;;;5008514;28;20136;-39
2022/11/29 09:22:11;;;;;;;38.08;16.10;;;8.00;99.90;;;;;;5009508;28;20080;-41
2022/11/29 09:24:38;;;;;;;41.00;16.30;;;8.10;99.90;;;;;;5010547;28;20060;-40
2022/11/29 09:27:05;;;;;;;40.50;16.20;;;8.00;99.90;;;;;;5011238;28;20188;-40
2022/11/29 09:29:33;;;;;;;35.15;16.90;;;8.10;99.90;;;;;;5009308;28;20076;-36
2022/11/29 09:32:00;;;;;;;34.03;15.02;;;8.10;99.90;;;;;;5020126;28;20127;-40
2022/11/29 09:34:27;;;;;;;41.47;16.63;;;8.10;99.90;;;;;;5031306;28;20091;-40
2022/11/29 09:36:54;;;;;;;48.80;17.05;;;8.10;99.90;;;;;;4997807;28;20548;-40
2022/11/29 09:39:20;;;;;;;36.20;16.25;;;8.20;99.90;;;;;;5002849;28;20096;-39
2022/11/29 09:42:00;;;;;;;39.63;15.93;;;8.20;99.90;;;;;;4995172;28;20140;-40
2022/11/29 09:44:32;;;;;;;34.92;15.15;;;8.20;99.90;;;;;;5001667;28;20049;-40
2022/11/29 09:47:03;;;;;;;48.85;16.75;;;8.20;99.90;;;;;;5002352;28;20455;-39
2022/11/29 09:49:50;;;;;;;35.03;15.10;;;8.30;99.90;;;;;;4989864;28;20104;-39
2022/11/29 09:52:22;;;;;;;33.05;14.23;;;8.30;99.90;;;;;;5011874;28;20054;-40
2022/11/29 09:54:51;;;;;;;29.70;13.98;;;8.30;99.90;;;;;;4993928;28;20140;-40
2022/11/29 09:57:18;;;;;;;38.20;15.57;;;8.30;99.90;;;;;;5011705;28;20050;-41
2022/11/29 09:59:46;;;;;;;36.08;15.13;;;8.30;99.90;;;;;;4989580;28;20061;-39
2022/11/29 10:02:17;;;;;;;36.45;15.38;;;8.30;99.90;;;;;;5007513;28;20085;-40
2022/11/29 10:04:44;;;;;;;31.70;14.07;;;8.30;99.90;;;;;;5013055;28;20047;-40
2022/11/29 10:07:16;;;;;;;29.35;14.82;;;8.30;99.90;;;;;;5006775;28;20512;-39
2022/11/29 10:09:44;;;;;;;34.88;14.48;;;8.40;99.90;;;;;;4987986;28;20046;-40
2022/11/29 10:12:13;;;;;;;34.72;13.25;;;8.40;99.90;;;;;;4996605;28;20058;-39
2022/11/29 10:14:44;;;;;;;31.65;14.90;;;8.30;99.90;;;;;;4989343;28;20046;-39
2022/11/29 10:17:15;;;;;;;32.10;13.85;;;8.30;99.90;;;;;;4976039;28;20054;-39
2022/11/29 10:19:44;;;;;;;29.55;13.63;;;8.30;99.90;;;;;;4998967;28;20050;-40
2022/11/29 10:22:15;;;;;;;28.40;13.43;;;8.40;99.90;;;;;;4974198;28;20042;-40
2022/11/29 10:24:43;;;;;;;28.42;13.18;;;8.40;99.90;;;;;;4991849;28;20054;-38
2022/11/29 10:27:14;;;;;;;36.97;13.65;;;8.40;99.90;;;;;;4993246;28;20424;-40
2022/11/29 10:29:40;;;;;;;31.48;13.15;;;8.40;99.90;;;;;;4977502;28;20151;-40
2022/11/29 10:32:11;;;;;;;29.55;12.50;;;8.40;99.90;;;;;;4974297;28;20098;-40
2022/11/29 10:34:38;;;;;;;22.90;12.52;;;8.40;99.90;;;;;;4995556;28;20115;-40
2022/11/29 10:37:06;;;;;;;28.20;12.77;;;8.40;99.90;;;;;;4990603;28;20114;-39
2022/11/29 10:39:35;;;;;;;29.35;13.48;;;8.40;99.90;;;;;;4989491;28;20104;-39
2022/11/29 10:42:03;;;;;;;32.00;13.63;;;8.40;99.90;;;;;;4991156;28;20516;-40
2022/11/29 10:44:31;;;;;;;25.38;12.45;;;8.40;99.90;;;;;;4980759;28;20549;-39
2022/11/29 10:46:58;;;;;;;25.15;11.55;;;8.40;99.90;;;;;;4988701;28;20659;-40
2022/11/29 10:49:26;;;;;;;24.65;12.85;;;8.50;99.90;;;;;;4989198;28;20054;-39
2022/11/29 10:51:53;;;;;;;27.45;13.20;;;8.50;99.90;;;;;;4974124;28;20470;-40
2022/11/29 10:54:28;;;;;;;27.75;11.98;;;8.50;99.90;;;;;;4981922;28;20051;-40
2022/11/29 10:56:55;;;;;;;25.83;12.45;;;8.50;99.90;;;;;;4955583;28;20435;-40
2022/11/29 10:59:23;;;;;;;25.45;11.23;;;8.60;99.90;;;;;;4990986;28;20093;-40
2022/11/29 11:01:50;;;;;;;26.65;11.43;;;8.60;99.90;;;;;;4990935;28;20133;-40
2022/11/29 11:04:24;;;;;;;27.48;11.02;;;8.60;99.90;;;;;;4974656;28;20129;-38
2022/11/29 11:06:55;;;;;;;26.98;11.95;;;8.60;99.90;;;;;;4976356;28;20141;-40
2022/11/29 11:09:27;;;;;;;26.95;11.93;;;8.60;99.90;;;;;;4990171;28;20082;-40
2022/11/29 11:11:55;;;;;;;25.40;12.05;;;8.60;99.90;;;;;;4990545;28;20076;-40
2022/11/29 11:14:23;;;;;;;23.27;12.25;;;8.70;99.90;;;;;;4984577;28;20550;-39
2022/11/29 11:16:50;;;;;;;23.33;10.23;;;8.60;99.90;;;;;;4972475;28;20097;-40
2022/11/29 11:19:28;;;;;;;28.30;10.88;;;8.70;99.90;;;;;;4978572;28;20133;-40
2022/11/29 11:21:55;;;;;;;27.42;10.50;;;8.70;99.90;;;;;;4972213;28;20090;-39
2022/11/29 11:24:23;;;;;;;27.52;11.07;;;8.70;99.90;;;;;;4992028;28;20075;-39
2022/11/29 11:26:51;;;;;;;25.00;10.23;;;8.80;99.90;;;;;;4990765;28;20133;-39
2022/11/29 11:29:19;;;;;;;21.15;9.93;;;8.90;99.90;;;;;;4991620;28;20145;-39
2022/11/29 11:31:51;;;;;;;23.70;10.80;;;8.90;99.90;;;;;;4976177;28;20194;-39
2022/11/29 11:34:27;;;;;;;28.60;10.57;;;9.00;99.90;;;;;;4980666;28;20200;-39
2022/11/29 11:36:54;;;;;;;24.13;10.00;;;9.00;99.90;;;;;;4988789;28;20145;-40
2022/11/29 11:39:21;;;;;;;26.70;10.05;;;9.00;99.90;;;;;;4968487;28;20113;-40
2022/11/29 11:44:37;;;;;;;22.90;9.40;;;9.10;99.90;;;;;;4989480;28;20490;-39
2022/11/29 11:47:04;;;;;;;25.67;10.73;;;9.10;99.90;;;;;;4975043;28;20406;-40
2022/11/29 11:49:33;;;;;;;26.75;10.68;;;9.10;99.90;;;;;;4996447;28;20141;-39
2022/11/29 11:51:59;;;;;;;27.23;9.85;;;9.10;99.90;;;;;;4984760;28;20446;-39
2022/11/29 11:54:26;;;;;;;23.73;9.50;;;9.20;99.90;;;;;;5010393;28;20062;-40
2022/11/29 11:56:53;;;;;;;25.50;10.10;;;9.20;99.90;;;;;;4990354;28;20088;-36
2022/11/29 11:59:25;;;;;;;31.77;10.65;;;9.20;99.90;;;;;;5011551;28;20038;-39
2022/11/29 12:01:53;;;;;;;;;;;9.30;99.90;;;;;;5012179;28;20053;-40
2022/11/29 12:04:21;;;;;;;30.80;11.02;;;9.30;99.90;;;;;;5014135;28;19925;-39
2022/11/29 12:06:50;;;;;;;33.95;13.85;;;9.20;99.90;;;;;;5009548;28;20130;-39
2022/11/29 12:09:28;;;;;;;30.67;12.02;;;9.30;99.90;;;;;;4998824;28;20410;-39
2022/11/29 12:12:00;;;;;;;30.50;10.60;;;9.30;99.90;;;;;;5024233;28;20101;-39
2022/11/29 12:14:31;;;;;;;23.58;10.10;;;9.40;99.90;;;;;;5033575;28;20061;-39
2022/11/29 12:17:01;;;;;;;;;;;9.40;99.90;;;;;;5024659;28;20053;-40
2022/11/29 12:19:31;;;;;;;37.20;11.18;;;9.40;99.90;;;;;;5023184;28;19964;-39
2022/11/29 12:22:00;;;;;;;29.08;10.63;;;9.40;99.90;;;;;;5026204;28;20144;-38
2022/11/29 12:24:28;;;;;;;33.47;10.02;;;9.50;99.90;;;;;;5032613;28;20064;-39
2022/11/29 12:26:55;;;;;;;36.75;10.00;;;9.50;99.90;;;;;;5031523;28;20085;-38
2022/11/29 12:29:22;;;;;;;27.98;10.70;;;9.50;99.90;;;;;;5012626;28;20484;-40
2022/11/29 12:31:56;;;;;;;35.65;11.48;;;9.60;99.90;;;;;;5014612;28;20173;-40
2022/11/29 12:34:37;;;;;;;29.98;10.27;;;9.60;99.90;;;;;;5029237;28;20049;-40
2022/11/29 12:37:05;;;;;;;36.15;11.15;;;9.60;99.90;;;;;;5032162;28;20489;-40
2022/11/29 12:39:55;;;;;;;33.42;11.05;;;9.60;99.90;;;;;;5025990;28;20107;-38
2022/11/29 12:42:34;;;;;;;30.95;11.32;;;9.60;99.90;;;;;;5032693;28;20452;-38
2022/11/29 12:45:03;;;;;;;42.97;11.82;;;9.60;99.90;;;;;;5032829;28;20058;-41
2022/11/29 12:47:37;;;;;;;40.67;11.48;;;9.60;99.90;;;;;;5031417;28;20046;-41
2022/11/29 12:50:12;;;;;;;29.17;11.73;;;9.60;99.90;;;;;;5015635;28;20203;-39
2022/11/29 12:52:42;;;;;;;40.85;13.35;;;9.60;99.90;;;;;;5029574;28;21087;-39
2022/11/29 12:55:16;;;;;;;44.45;18.73;;;9.60;99.90;;;;;;5018456;28;20133;-39
2022/11/29 12:57:44;;;;;;;45.65;21.35;;;9.60;99.90;;;;;;5010016;28;20111;-39
2022/11/29 13:00:12;;;;;;;36.55;12.32;;;9.60;99.90;;;;;;5015467;28;20459;-39
2022/11/29 13:02:47;;;;;;;37.17;12.10;;;9.70;99.90;;;;;;5021550;28;20129;-40
2022/11/29 13:05:36;;;;;;;44.47;12.68;;;9.70;99.90;;;;;;5002128;28;20054;-38
2022/11/29 13:08:18;;;;;;;40.15;12.88;;;9.60;99.90;;;;;;5015263;28;20141;-41
2022/11/29 13:10:55;;;;;;;41.45;12.25;;;9.70;99.90;;;;;;5007993;28;20085;-39